Terminal Aerodrome Forecast
Issued by NWS Shreveport, LA

Home | Current Version | Previous Version | Text Only | Print | Product List | Glossary On
Versions: 1 2 3 4 5 6 7 8 9 10 11 12 13 14
000
FTUS44 KSHV 042035 AAA
TAFELD
TAF AMD
KELD 042035Z 0421/0518 14005KT P6SM VCSH SCT005 OVC070
     FM050200 20004KT P6SM BKN080
      TEMPO 0510/0514 2SM BR SKC
     FM051400 22006KT P6SM VCTS BKN025CB=

USA.gov is the U.S. government's official web portal to all federal, state and local government web resources and services.